createdAt,value
2023-04-12T00:00:37.758Z,94514.00
2023-04-12T00:01:37.955Z,94510.00
2023-04-12T00:02:38.217Z,94508.00
2023-04-12T00:03:38.139Z,94508.00
2023-04-12T00:04:38.144Z,94504.00
2023-04-12T00:05:38.043Z,94502.00
2023-04-12T00:06:38.113Z,94500.00
2023-04-12T00:07:38.168Z,94500.00
2023-04-12T00:08:38.267Z,94500.00
2023-04-12T00:09:38.334Z,94500.00
2023-04-12T00:10:38.336Z,94494.00
2023-04-12T00:11:38.389Z,94496.00
2023-04-12T00:12:38.463Z,94490.00
2023-04-12T00:13:38.530Z,94490.00
2023-04-12T00:14:38.629Z,94486.00
2023-04-12T00:15:38.661Z,94488.00
2023-04-12T00:16:38.717Z,94488.00
2023-04-12T00:17:38.799Z,94486.00
2023-04-12T00:18:38.809Z,94484.00
2023-04-12T00:19:38.898Z,94478.00
2023-04-12T00:20:38.970Z,94478.00
2023-04-12T00:21:38.993Z,94474.00
2023-04-12T00:22:39.113Z,94474.00
2023-04-12T00:23:39.142Z,94471.00
2023-04-12T00:24:39.192Z,94471.00
2023-04-12T00:25:39.276Z,94467.00
2023-04-12T00:26:39.317Z,94469.00
2023-04-12T00:27:39.372Z,94467.00
2023-04-12T00:28:39.447Z,94465.00
2023-04-12T00:29:39.513Z,94465.00
2023-04-12T00:30:39.543Z,94465.00
2023-04-12T00:31:39.666Z,94465.00
2023-04-12T00:32:39.737Z,94463.00
2023-04-12T00:33:39.741Z,94465.00
2023-04-12T00:34:39.847Z,94463.00
2023-04-12T00:35:39.848Z,94463.00
2023-04-12T00:36:39.994Z,94461.00
2023-04-12T00:37:40.045Z,94461.00
2023-04-12T00:38:40.047Z,94461.00
2023-04-12T00:39:40.131Z,94459.00
2023-04-12T00:40:40.171Z,94457.00
2023-04-12T00:41:40.246Z,94459.00
2023-04-12T00:42:40.292Z,94457.00
2023-04-12T00:43:40.374Z,94459.00
2023-04-12T00:44:40.403Z,94457.00
2023-04-12T00:45:40.523Z,94455.00
2023-04-12T00:46:40.659Z,94457.00
2023-04-12T00:47:40.634Z,94453.00
2023-04-12T00:48:40.710Z,94455.00
2023-04-12T00:49:40.734Z,94455.00
2023-04-12T00:50:40.814Z,94453.00
2023-04-12T00:51:40.846Z,94451.00
2023-04-12T00:52:40.997Z,94449.00
2023-04-12T00:53:40.965Z,94447.00
2023-04-12T00:54:40.991Z,94447.00
2023-04-12T00:55:41.052Z,94447.00
2023-04-12T00:56:41.121Z,94449.00
2023-04-12T00:57:41.180Z,94449.00
2023-04-12T00:58:41.233Z,94445.00
2023-04-12T00:59:41.276Z,94445.00
2023-04-12T01:00:41.402Z,94445.00
2023-04-12T01:01:41.584Z,94445.00
2023-04-12T01:02:41.637Z,94441.00
2023-04-12T01:03:41.648Z,94443.00
2023-04-12T01:04:41.633Z,94441.00
2023-04-12T01:05:41.705Z,94439.00
2023-04-12T01:06:41.740Z,94437.00
2023-04-12T01:07:41.854Z,94439.00
2023-04-12T01:08:41.928Z,94437.00
2023-04-12T01:09:41.898Z,94437.00
2023-04-12T01:10:41.963Z,94437.00
2023-04-12T01:11:42.001Z,94439.00
2023-04-12T01:12:42.101Z,94437.00
2023-04-12T01:13:42.165Z,94435.00
2023-04-12T01:14:42.198Z,94435.00
2023-04-12T01:15:42.284Z,94433.00
2023-04-12T01:16:42.450Z,94433.00
2023-04-12T01:17:42.470Z,94431.00
2023-04-12T01:18:42.519Z,94431.00
2023-04-12T01:19:42.541Z,94431.00
2023-04-12T01:20:42.604Z,94431.00
2023-04-12T01:21:42.612Z,94429.00
2023-04-12T01:22:42.722Z,94424.00
2023-04-12T01:23:42.767Z,94424.00
2023-04-12T01:24:42.832Z,94422.00
2023-04-12T01:25:42.985Z,94422.00
2023-04-12T01:26:42.963Z,94420.00
2023-04-12T01:27:43.004Z,94418.00
2023-04-12T01:28:43.047Z,94416.00
2023-04-12T01:29:43.093Z,94416.00
2023-04-12T01:30:43.189Z,94414.00
2023-04-12T01:31:43.336Z,94412.00
2023-04-12T01:32:43.314Z,94408.00
2023-04-12T01:33:43.370Z,94406.00
2023-04-12T01:34:43.463Z,94406.00
2023-04-12T01:35:43.539Z,94404.00
2023-04-12T01:36:43.567Z,94404.00
2023-04-12T01:37:43.586Z,94404.00
2023-04-12T01:38:43.679Z,94402.00
2023-04-12T01:39:43.721Z,94400.00
2023-04-12T01:40:43.770Z,94400.00
2023-04-12T01:41:43.826Z,94398.00
2023-04-12T01:42:43.835Z,94396.00
2023-04-12T01:43:43.904Z,94394.00
2023-04-12T01:44:43.936Z,94388.00
2023-04-12T01:45:44.130Z,94394.00
2023-04-12T01:46:44.081Z,94394.00
2023-04-12T01:47:44.144Z,94396.00
2023-04-12T01:48:44.184Z,94394.00
2023-04-12T01:49:44.223Z,94400.00
2023-04-12T01:50:44.282Z,94398.00
2023-04-12T01:51:44.354Z,94392.00
2023-04-12T01:52:44.331Z,94392.00
2023-04-12T01:53:44.416Z,94390.00
2023-04-12T01:54:44.425Z,94390.00
2023-04-12T01:55:44.487Z,94390.00
2023-04-12T01:56:44.505Z,94392.00
2023-04-12T01:57:44.547Z,94392.00
2023-04-12T01:58:44.612Z,94392.00
2023-04-12T01:59:44.659Z,94392.00
2023-04-12T02:00:44.782Z,94390.00
2023-04-12T02:01:44.865Z,94390.00
2023-04-12T02:02:45.028Z,94390.00
2023-04-12T02:03:44.989Z,94392.00
2023-04-12T02:04:45.522Z,94390.00
2023-04-12T02:05:45.019Z,94390.00
2023-04-12T02:06:45.139Z,94386.00
2023-04-12T02:07:45.125Z,94386.00
2023-04-12T02:08:45.189Z,94386.00
2023-04-12T02:09:45.248Z,94388.00
2023-04-12T02:10:45.250Z,94386.00
2023-04-12T02:11:45.275Z,94390.00
2023-04-12T02:12:45.366Z,94388.00
2023-04-12T02:13:45.462Z,94390.00
2023-04-12T02:14:45.438Z,94388.00
2023-04-12T02:15:45.541Z,94388.00
2023-04-12T02:16:45.493Z,94388.00
2023-04-12T02:17:45.649Z,94388.00
2023-04-12T02:18:45.612Z,94388.00
2023-04-12T02:19:45.712Z,94388.00
2023-04-12T02:20:45.688Z,94390.00
2023-04-12T02:21:45.739Z,94388.00
2023-04-12T02:22:45.735Z,94388.00
2023-04-12T02:23:45.733Z,94390.00
2023-04-12T02:24:45.887Z,94388.00
2023-04-12T02:25:45.852Z,94390.00
2023-04-12T02:26:45.868Z,94392.00
2023-04-12T02:27:45.940Z,94392.00
2023-04-12T02:28:45.973Z,94388.00
2023-04-12T02:29:45.996Z,94388.00
2023-04-12T02:30:46.136Z,94392.00
2023-04-12T02:31:46.151Z,94392.00
2023-04-12T02:32:46.203Z,94388.00
2023-04-12T02:33:46.227Z,94392.00
2023-04-12T02:34:46.331Z,94396.00
2023-04-12T02:35:46.266Z,94396.00
2023-04-12T02:36:46.333Z,94396.00
2023-04-12T02:37:46.349Z,94396.00
2023-04-12T02:38:46.435Z,94398.00
2023-04-12T02:39:46.460Z,94398.00
2023-04-12T02:40:46.537Z,94398.00
2023-04-12T02:41:46.539Z,94402.00
2023-04-12T02:42:46.601Z,94400.00
2023-04-12T02:43:46.595Z,94400.00
2023-04-12T02:44:46.707Z,94402.00
2023-04-12T02:45:46.729Z,94402.00
2023-04-12T02:46:46.801Z,94404.00
2023-04-12T02:47:46.797Z,94404.00
2023-04-12T02:48:46.849Z,94402.00
2023-04-12T02:49:46.852Z,94400.00
2023-04-12T02:50:46.883Z,94400.00
2023-04-12T02:51:47.468Z,94400.00
2023-04-12T02:52:46.947Z,94398.00
2023-04-12T02:53:46.973Z,94396.00
2023-04-12T02:54:47.027Z,94398.00
2023-04-12T02:55:47.088Z,94400.00
2023-04-12T02:56:47.543Z,94400.00
2023-04-12T02:57:47.095Z,94402.00
2023-04-12T02:58:47.098Z,94400.00
2023-04-12T02:59:47.175Z,94400.00
2023-04-12T03:00:47.178Z,94396.00
2023-04-12T03:01:47.331Z,94396.00
2023-04-12T03:02:47.386Z,94396.00
2023-04-12T03:03:47.350Z,94398.00
2023-04-12T03:04:47.385Z,94398.00
2023-04-12T03:05:47.369Z,94398.00
2023-04-12T03:06:47.367Z,94396.00
2023-04-12T03:07:47.367Z,94392.00
2023-04-12T03:08:47.444Z,94396.00
2023-04-12T03:09:47.486Z,94394.00
2023-04-12T03:10:47.595Z,94394.00
2023-04-12T03:11:47.506Z,94394.00
2023-04-12T03:12:47.581Z,94392.00
2023-04-12T03:13:47.679Z,94392.00
2023-04-12T03:14:47.626Z,94390.00
2023-04-12T03:15:47.727Z,94390.00
2023-04-12T03:16:47.738Z,94390.00
2023-04-12T03:17:47.880Z,94388.00
2023-04-12T03:18:47.807Z,94388.00
2023-04-12T03:19:47.964Z,94388.00
2023-04-12T03:20:47.966Z,94390.00
2023-04-12T03:21:47.935Z,94390.00
2023-04-12T03:22:48.021Z,94390.00
2023-04-12T03:23:47.989Z,94390.00
2023-04-12T03:24:48.073Z,94386.00
2023-04-12T03:25:48.124Z,94388.00
2023-04-12T03:26:48.128Z,94388.00
2023-04-12T03:27:48.171Z,94386.00
2023-04-12T03:28:48.221Z,94388.00
2023-04-12T03:29:48.241Z,94384.00
2023-04-12T03:30:48.356Z,94384.00
2023-04-12T03:31:48.386Z,94382.00
2023-04-12T03:32:48.497Z,94382.00
2023-04-12T03:33:48.436Z,94384.00
2023-04-12T03:34:48.451Z,94384.00
2023-04-12T03:35:48.557Z,94388.00
2023-04-12T03:36:48.610Z,94388.00
2023-04-12T03:37:48.612Z,94390.00
2023-04-12T03:38:48.550Z,94390.00
2023-04-12T03:39:48.717Z,94388.00
2023-04-12T03:40:48.700Z,94388.00
2023-04-12T03:41:48.640Z,94386.00
2023-04-12T03:42:48.730Z,94390.00
2023-04-12T03:43:48.691Z,94388.00
2023-04-12T03:44:48.669Z,94388.00
2023-04-12T03:45:48.759Z,94380.00
2023-04-12T03:46:48.716Z,94382.00
2023-04-12T03:47:48.856Z,94380.00
2023-04-12T03:48:48.770Z,94380.00
2023-04-12T03:50:01.753Z,94380.00
2023-04-12T03:50:49.883Z,94380.00
2023-04-12T03:51:48.698Z,94380.00
2023-04-12T03:52:48.692Z,94380.00
2023-04-12T03:53:48.701Z,94371.00
2023-04-12T03:54:48.719Z,94369.00
2023-04-12T03:55:48.724Z,94369.00
2023-04-12T03:56:48.730Z,94369.00
2023-04-12T03:57:48.690Z,94367.00
2023-04-12T03:58:48.638Z,94365.00
2023-04-12T03:59:48.637Z,94365.00
2023-04-12T04:00:48.650Z,94367.00
2023-04-12T04:01:48.752Z,94363.00
2023-04-12T04:02:48.698Z,94363.00
2023-04-12T04:03:48.742Z,94365.00
2023-04-12T04:04:48.866Z,94365.00
2023-04-12T04:05:48.642Z,94367.00
2023-04-12T04:06:48.816Z,94369.00
2023-04-12T04:07:48.660Z,94369.00
2023-04-12T04:08:48.626Z,94367.00
2023-04-12T04:09:48.617Z,94367.00
2023-04-12T04:10:48.623Z,94365.00
2023-04-12T04:11:48.720Z,94365.00
2023-04-12T04:12:48.589Z,94365.00
2023-04-12T04:13:48.555Z,94363.00
2023-04-12T04:14:48.555Z,94363.00
2023-04-12T04:15:48.546Z,94365.00
2023-04-12T04:16:48.722Z,94363.00
2023-04-12T04:17:48.628Z,94363.00
2023-04-12T04:18:48.540Z,94361.00
2023-04-12T04:19:49.502Z,94363.00
2023-04-12T04:20:48.550Z,94361.00
2023-04-12T04:21:48.486Z,94361.00
2023-04-12T04:22:48.593Z,94361.00
2023-04-12T04:23:48.617Z,94359.00
2023-04-12T04:24:48.609Z,94357.00
2023-04-12T04:25:48.582Z,94357.00
2023-04-12T04:26:48.631Z,94355.00
2023-04-12T04:27:48.553Z,94351.00
2023-04-12T04:28:48.735Z,94351.00
2023-04-12T04:29:48.650Z,94347.00
2023-04-12T04:30:48.665Z,94349.00
2023-04-12T04:31:48.813Z,94347.00
2023-04-12T04:32:48.749Z,94347.00
2023-04-12T04:33:48.850Z,94345.00
2023-04-12T04:34:48.789Z,94345.00
2023-04-12T04:35:48.801Z,94343.00
2023-04-12T04:36:48.929Z,94341.00
2023-04-12T04:37:48.824Z,94337.00
2023-04-12T04:38:48.823Z,94343.00
2023-04-12T04:39:48.937Z,94341.00
2023-04-12T04:40:48.887Z,94341.00
2023-04-12T04:41:48.930Z,94333.00
2023-04-12T04:42:48.949Z,94335.00
2023-04-12T04:43:48.846Z,94333.00
2023-04-12T04:44:48.953Z,94335.00
2023-04-12T04:45:48.902Z,94333.00
2023-04-12T04:46:48.872Z,94332.00
2023-04-12T04:47:48.955Z,94332.00
2023-04-12T04:48:48.973Z,94332.00
2023-04-12T04:49:48.893Z,94332.00
2023-04-12T04:50:48.861Z,94333.00
2023-04-12T04:51:48.908Z,94333.00
2023-04-12T04:52:49.014Z,94330.00
2023-04-12T04:53:48.915Z,94332.00
2023-04-12T04:54:49.037Z,94332.00
2023-04-12T04:55:48.975Z,94328.00
2023-04-12T04:56:49.020Z,94328.00
2023-04-12T04:57:48.998Z,94324.00
2023-04-12T04:58:49.006Z,94328.00
2023-04-12T04:59:49.022Z,94328.00
2023-04-12T05:00:49.118Z,94324.00
2023-04-12T05:01:49.241Z,94324.00
2023-04-12T05:02:49.209Z,94324.00
2023-04-12T05:03:49.204Z,94328.00
2023-04-12T05:04:49.072Z,94328.00
2023-04-12T05:05:49.195Z,94330.00
2023-04-12T05:06:49.095Z,94332.00
2023-04-12T05:07:49.210Z,94333.00
2023-04-12T05:08:49.182Z,94332.00
2023-04-12T05:09:49.185Z,94333.00
2023-04-12T05:10:49.241Z,94332.00
2023-04-12T05:11:49.236Z,94330.00
2023-04-12T05:12:49.277Z,94330.00
2023-04-12T05:13:49.343Z,94332.00
2023-04-12T05:14:51.635Z,94330.00
2023-04-12T05:15:49.343Z,94332.00
2023-04-12T05:16:49.399Z,94328.00
2023-04-12T05:17:49.308Z,94328.00
2023-04-12T05:18:49.299Z,94326.00
2023-04-12T05:19:49.397Z,94324.00
2023-04-12T05:20:49.298Z,94326.00
2023-04-12T05:21:49.302Z,94330.00
2023-04-12T05:22:49.304Z,94326.00
2023-04-12T05:23:49.313Z,94326.00
2023-04-12T05:24:49.331Z,94324.00
2023-04-12T05:25:49.333Z,94324.00
2023-04-12T05:26:49.248Z,94328.00
2023-04-12T05:27:52.008Z,94328.00
2023-04-12T05:28:49.284Z,94324.00
2023-04-12T05:29:49.206Z,94322.00
2023-04-12T05:30:49.285Z,94318.00
2023-04-12T05:31:49.279Z,94316.00
2023-04-12T05:32:49.355Z,94316.00
2023-04-12T05:33:49.222Z,94312.00
2023-04-12T05:34:49.201Z,94314.00
2023-04-12T05:35:49.339Z,94312.00
2023-04-12T05:36:49.718Z,94310.00
2023-04-12T05:37:49.142Z,94308.00
2023-04-12T05:38:49.235Z,94312.00
2023-04-12T05:39:49.209Z,94312.00
2023-04-12T05:40:49.119Z,94308.00
2023-04-12T05:41:49.126Z,94308.00
2023-04-12T05:42:49.155Z,94314.00
2023-04-12T05:43:49.261Z,94310.00
2023-04-12T05:44:49.884Z,94306.00
2023-04-12T05:45:49.213Z,94320.00
2023-04-12T05:46:49.188Z,94314.00
2023-04-12T05:47:49.237Z,94314.00
2023-04-12T05:48:49.076Z,94310.00
2023-04-12T05:49:49.132Z,94308.00
2023-04-12T05:50:49.102Z,94300.00
2023-04-12T05:51:49.621Z,94304.00
2023-04-12T05:52:49.042Z,94296.00
2023-04-12T05:53:49.120Z,94300.00
2023-04-12T05:54:49.016Z,94298.00
2023-04-12T05:55:49.023Z,94296.00
2023-04-12T05:56:49.090Z,94294.00
2023-04-12T05:57:49.040Z,94292.00
2023-04-12T05:58:49.058Z,94286.00
2023-04-12T05:59:49.516Z,94292.00
2023-04-12T06:00:49.069Z,94288.00
2023-04-12T06:01:49.086Z,94286.00
2023-04-12T06:02:49.090Z,94280.00
2023-04-12T06:03:49.165Z,94282.00
2023-04-12T06:04:50.864Z,94280.00
2023-04-12T06:05:49.214Z,94278.00
2023-04-12T06:06:49.139Z,94282.00
2023-04-12T06:07:49.579Z,94280.00
2023-04-12T06:08:49.320Z,94280.00
2023-04-12T06:09:49.137Z,94278.00
2023-04-12T06:10:49.252Z,94275.00
2023-04-12T06:11:49.259Z,94275.00
2023-04-12T06:12:49.360Z,94271.00
2023-04-12T06:13:49.227Z,94277.00
2023-04-12T06:14:49.295Z,94273.00
2023-04-12T06:15:49.429Z,94273.00
2023-04-12T06:16:49.419Z,94269.00
2023-04-12T06:17:49.554Z,94265.00
2023-04-12T06:18:49.579Z,94265.00
2023-04-12T06:19:49.606Z,94265.00
2023-04-12T06:20:49.705Z,94259.00
2023-04-12T06:21:49.687Z,94259.00
2023-04-12T06:22:49.742Z,94259.00
2023-04-12T06:23:56.534Z,94257.00
2023-04-12T06:24:50.048Z,94259.00
2023-04-12T06:25:49.782Z,94257.00
2023-04-12T06:26:49.795Z,94257.00
2023-04-12T06:27:49.862Z,94257.00
2023-04-12T06:28:49.778Z,94253.00
2023-04-12T06:29:50.016Z,94253.00
2023-04-12T06:30:49.704Z,94253.00
2023-04-12T06:31:49.826Z,94253.00
2023-04-12T06:32:49.748Z,94249.00
2023-04-12T06:33:49.806Z,94245.00
2023-04-12T06:34:49.808Z,94247.00
2023-04-12T06:35:50.553Z,94247.00
2023-04-12T06:36:49.722Z,94241.00
2023-04-12T06:37:49.744Z,94243.00
2023-04-12T06:38:49.730Z,94245.00
2023-04-12T06:39:50.060Z,94241.00
2023-04-12T06:40:49.675Z,94241.00
2023-04-12T06:41:49.849Z,94239.00
2023-04-12T06:42:49.750Z,94235.00
2023-04-12T06:43:49.644Z,94235.00
2023-04-12T06:44:49.713Z,94235.00
2023-04-12T06:45:49.723Z,94233.00
2023-04-12T06:46:49.751Z,94235.00
2023-04-12T06:47:49.653Z,94237.00
2023-04-12T06:48:49.621Z,94241.00
2023-04-12T06:49:49.705Z,94235.00
2023-04-12T06:50:49.611Z,94231.00
2023-04-12T06:51:49.605Z,94228.00
2023-04-12T06:52:49.621Z,94226.00
2023-04-12T06:53:49.636Z,94228.00
2023-04-12T06:54:49.639Z,94228.00
2023-04-12T06:55:49.567Z,94226.00
2023-04-12T06:56:49.593Z,94226.00
2023-04-12T06:57:49.671Z,94226.00
2023-04-12T06:58:49.865Z,94226.00
2023-04-12T06:59:49.563Z,94224.00
2023-04-12T07:00:50.164Z,94222.00
2023-04-12T07:01:49.837Z,94220.00
2023-04-12T07:02:49.905Z,94218.00
2023-04-12T07:03:49.978Z,94214.00
2023-04-12T07:04:49.899Z,94218.00
2023-04-12T07:05:49.938Z,94218.00
2023-04-12T07:06:49.956Z,94210.00
2023-04-12T07:07:50.039Z,94208.00
2023-04-12T07:08:50.078Z,94210.00
2023-04-12T07:09:50.141Z,94208.00
2023-04-12T07:10:50.204Z,94208.00
2023-04-12T07:11:50.253Z,94208.00
2023-04-12T07:12:50.304Z,94208.00
2023-04-12T07:13:50.411Z,94210.00
2023-04-12T07:14:50.406Z,94208.00
2023-04-12T07:15:50.494Z,94208.00
2023-04-12T07:16:50.553Z,94212.00
2023-04-12T07:17:50.698Z,94206.00
2023-04-12T07:18:50.783Z,94204.00
2023-04-12T07:19:51.064Z,94204.00
2023-04-12T07:20:50.780Z,94206.00
2023-04-12T07:21:50.861Z,94206.00
2023-04-12T07:22:50.849Z,94208.00
2023-04-12T07:23:50.882Z,94200.00
2023-04-12T07:24:51.081Z,94198.00
2023-04-12T07:25:50.988Z,94198.00
2023-04-12T07:26:51.013Z,94192.00
2023-04-12T07:27:51.957Z,94190.00
2023-04-12T07:28:51.134Z,94188.00
2023-04-12T07:29:51.148Z,94180.00
2023-04-12T07:30:51.212Z,94178.00
2023-04-12T07:31:51.284Z,94182.00
2023-04-12T07:32:51.312Z,94182.00
2023-04-12T07:33:51.402Z,94184.00
2023-04-12T07:34:51.319Z,94178.00
2023-04-12T07:35:51.371Z,94194.00
2023-04-12T07:36:51.362Z,94190.00
2023-04-12T07:37:51.379Z,94186.00
2023-04-12T07:38:51.584Z,94182.00
2023-04-12T07:39:51.550Z,94180.00
2023-04-12T07:40:51.490Z,94180.00
2023-04-12T07:41:51.526Z,94186.00
2023-04-12T07:42:51.514Z,94182.00
2023-04-12T07:43:51.550Z,94186.00
2023-04-12T07:44:51.607Z,94184.00
2023-04-12T07:45:51.585Z,94182.00
2023-04-12T07:46:51.635Z,94180.00
2023-04-12T07:47:51.677Z,94180.00
2023-04-12T07:48:51.731Z,94180.00
2023-04-12T07:49:51.757Z,94175.00
2023-04-12T07:50:51.797Z,94178.00
2023-04-12T07:51:51.868Z,94182.00
2023-04-12T07:52:51.906Z,94176.00
2023-04-12T07:53:51.994Z,94178.00
2023-04-12T07:54:52.209Z,94182.00
2023-04-12T07:55:52.327Z,94176.00
2023-04-12T07:56:52.210Z,94180.00
2023-04-12T07:57:52.257Z,94178.00
2023-04-12T07:58:52.330Z,94175.00
2023-04-12T07:59:52.351Z,94175.00
2023-04-12T08:00:52.437Z,94171.00
2023-04-12T08:01:52.553Z,94169.00
2023-04-12T08:02:52.630Z,94167.00
2023-04-12T08:03:52.659Z,94167.00
2023-04-12T08:04:52.513Z,94169.00
2023-04-12T08:05:52.507Z,94171.00
2023-04-12T08:06:52.526Z,94171.00
2023-04-12T08:07:52.720Z,94173.00
2023-04-12T08:08:52.646Z,94176.00
2023-04-12T08:09:52.639Z,94175.00
2023-04-12T08:10:52.720Z,94173.00
2023-04-12T08:11:52.764Z,94173.00
2023-04-12T08:12:52.832Z,94169.00
2023-04-12T08:13:52.852Z,94173.00
2023-04-12T08:14:52.849Z,94175.00
2023-04-12T08:15:52.877Z,94176.00
2023-04-12T08:16:52.857Z,94178.00
2023-04-12T08:17:52.920Z,94180.00
2023-04-12T08:18:52.917Z,94180.00
2023-04-12T08:19:53.118Z,94176.00
2023-04-12T08:20:52.989Z,94176.00
2023-04-12T08:21:53.128Z,94180.00
2023-04-12T08:22:53.289Z,94184.00
2023-04-12T08:23:53.453Z,94196.00
2023-04-12T08:24:53.533Z,94192.00
2023-04-12T08:25:54.149Z,94190.00
2023-04-12T08:26:53.646Z,94186.00
2023-04-12T08:27:53.647Z,94190.00
2023-04-12T08:28:53.759Z,94184.00
2023-04-12T08:29:53.663Z,94188.00
2023-04-12T08:30:53.709Z,94184.00
2023-04-12T08:31:53.726Z,94188.00
2023-04-12T08:32:53.896Z,94194.00
2023-04-12T08:33:53.890Z,94190.00
2023-04-12T08:34:53.918Z,94192.00
2023-04-12T08:35:54.209Z,94182.00
2023-04-12T08:36:53.940Z,94186.00
2023-04-12T08:37:54.016Z,94182.00
2023-04-12T08:38:55.075Z,94180.00
2023-04-12T08:39:54.080Z,94182.00
2023-04-12T08:40:54.155Z,94178.00
2023-04-12T08:41:54.086Z,94171.00
2023-04-12T08:42:54.185Z,94165.00
2023-04-12T08:43:54.165Z,94159.00
2023-04-12T08:44:54.326Z,94155.00
2023-04-12T08:45:54.371Z,94151.00
2023-04-12T08:46:54.418Z,94145.00
2023-04-12T08:47:54.447Z,94147.00
2023-04-12T08:48:54.340Z,94147.00
2023-04-12T08:49:54.418Z,94145.00
2023-04-12T08:50:54.437Z,94147.00
2023-04-12T08:51:54.630Z,94147.00
2023-04-12T08:52:54.429Z,94147.00
2023-04-12T08:53:54.434Z,94145.00
2023-04-12T08:54:54.445Z,94137.00
2023-04-12T08:55:54.501Z,94135.00
2023-04-12T08:56:54.512Z,94139.00
2023-04-12T08:57:54.574Z,94137.00
2023-04-12T08:58:54.584Z,94135.00
2023-04-12T08:59:54.622Z,94131.00
2023-04-12T09:00:54.690Z,94128.00
2023-04-12T09:01:54.957Z,94126.00
2023-04-12T09:02:55.028Z,94128.00
2023-04-12T09:03:56.694Z,94131.00
2023-04-12T09:04:54.905Z,94133.00
2023-04-12T09:05:54.939Z,94133.00
2023-04-12T09:06:55.055Z,94131.00
2023-04-12T09:07:55.063Z,94133.00
2023-04-12T09:08:55.142Z,94131.00
2023-04-12T09:09:55.172Z,94135.00
2023-04-12T09:10:55.179Z,94131.00
2023-04-12T09:11:55.278Z,94129.00
2023-04-12T09:12:55.285Z,94126.00
2023-04-12T09:13:55.375Z,94128.00
2023-04-12T09:14:55.412Z,94126.00
2023-04-12T09:15:55.534Z,94114.00
2023-04-12T09:16:55.474Z,94112.00
2023-04-12T09:17:55.619Z,94108.00
2023-04-12T09:18:55.696Z,94104.00
2023-04-12T09:19:55.549Z,94102.00
2023-04-12T09:20:55.519Z,94100.00
2023-04-12T09:21:55.592Z,94098.00
2023-04-12T09:22:55.642Z,94098.00
2023-04-12T09:23:55.882Z,94096.00
2023-04-12T09:24:55.657Z,94100.00
2023-04-12T09:25:55.690Z,94094.00
2023-04-12T09:26:55.706Z,94088.00
2023-04-12T09:27:55.757Z,94088.00
2023-04-12T09:28:55.803Z,94084.00
2023-04-12T09:29:55.822Z,94084.00
2023-04-12T09:30:55.832Z,94083.00
2023-04-12T09:31:55.993Z,94088.00
2023-04-12T09:32:55.990Z,94090.00
2023-04-12T09:33:56.098Z,94088.00
2023-04-12T09:34:55.956Z,94086.00
2023-04-12T09:35:55.989Z,94084.00
2023-04-12T09:36:56.062Z,94083.00
2023-04-12T09:37:55.885Z,94079.00
2023-04-12T09:38:55.933Z,94077.00
2023-04-12T09:39:56.053Z,94071.00
2023-04-12T09:40:55.938Z,94069.00
2023-04-12T09:41:55.940Z,94065.00
2023-04-12T09:42:56.011Z,94067.00
2023-04-12T09:43:56.336Z,94065.00
2023-04-12T09:44:56.146Z,94063.00
2023-04-12T09:45:56.169Z,94057.00
2023-04-12T09:46:56.313Z,94061.00
2023-04-12T09:47:56.386Z,94053.00
2023-04-12T09:48:56.584Z,94053.00
2023-04-12T09:49:56.375Z,94051.00
2023-04-12T09:50:56.431Z,94053.00
2023-04-12T09:51:58.901Z,94051.00
2023-04-12T09:52:56.469Z,94047.00
2023-04-12T09:53:56.579Z,94041.00
2023-04-12T09:54:56.458Z,94039.00
2023-04-12T09:55:56.509Z,94039.00
2023-04-12T09:56:56.446Z,94039.00
2023-04-12T09:57:56.491Z,94039.00
2023-04-12T09:58:56.596Z,94033.00
2023-04-12T09:59:56.411Z,94032.00
2023-04-12T10:00:56.435Z,94026.00
2023-04-12T10:01:56.486Z,94022.00
2023-04-12T10:02:56.915Z,94020.00
2023-04-12T10:03:56.856Z,94016.00
2023-04-12T10:04:56.645Z,94012.00
2023-04-12T10:05:56.463Z,94010.00
2023-04-12T10:06:56.367Z,94006.00
2023-04-12T10:07:56.378Z,94002.00
2023-04-12T10:08:56.540Z,93998.00
2023-04-12T10:09:56.412Z,93992.00
2023-04-12T10:10:56.395Z,93992.00
2023-04-12T10:11:56.345Z,93988.00
2023-04-12T10:12:56.357Z,93986.00
2023-04-12T10:13:56.695Z,93982.00
2023-04-12T10:14:56.366Z,93981.00
2023-04-12T10:15:56.392Z,93979.00
2023-04-12T10:16:56.434Z,93975.00
2023-04-12T10:17:56.305Z,93973.00
2023-04-12T10:18:56.514Z,93967.00
2023-04-12T10:19:56.269Z,93967.00
2023-04-12T10:20:56.308Z,93961.00
2023-04-12T10:21:56.299Z,93959.00
2023-04-12T10:22:56.285Z,93961.00
2023-04-12T10:23:56.329Z,93955.00
2023-04-12T10:24:56.286Z,93949.00
2023-04-12T10:25:56.282Z,93951.00
2023-04-12T10:26:56.297Z,93949.00
2023-04-12T10:27:56.369Z,93947.00
2023-04-12T10:28:58.933Z,93945.00
2023-04-12T10:29:56.371Z,93941.00
2023-04-12T10:30:56.369Z,93941.00
2023-04-12T10:31:56.445Z,93941.00
2023-04-12T10:32:56.420Z,93945.00
2023-04-12T10:33:56.426Z,93939.00
2023-04-12T10:34:56.452Z,93935.00
2023-04-12T10:35:56.531Z,93934.00
2023-04-12T10:36:56.382Z,93928.00
2023-04-12T10:37:56.368Z,93924.00
2023-04-12T10:38:56.505Z,93928.00
2023-04-12T10:39:56.330Z,93930.00
2023-04-12T10:40:56.299Z,93926.00
2023-04-12T10:41:56.276Z,93930.00
2023-04-12T10:42:56.301Z,93928.00
2023-04-12T10:43:56.344Z,93924.00
2023-04-12T10:44:57.493Z,93926.00
2023-04-12T10:45:56.274Z,93920.00
2023-04-12T10:46:56.303Z,93920.00
2023-04-12T10:47:56.294Z,93918.00
2023-04-12T10:48:56.427Z,93920.00
2023-04-12T10:49:56.264Z,93918.00
2023-04-12T10:50:56.234Z,93916.00
2023-04-12T10:51:56.307Z,93918.00
2023-04-12T10:52:56.204Z,93914.00
2023-04-12T10:53:56.297Z,93914.00
2023-04-12T10:54:56.256Z,93912.00
2023-04-12T10:55:56.211Z,93908.00
2023-04-12T10:56:56.355Z,93904.00
2023-04-12T10:57:56.720Z,93902.00
2023-04-12T10:58:56.297Z,93892.00
2023-04-12T10:59:57.299Z,93887.00
2023-04-12T11:00:56.221Z,93887.00
2023-04-12T11:01:56.322Z,93890.00
2023-04-12T11:02:56.388Z,93885.00
2023-04-12T11:03:56.368Z,93888.00
2023-04-12T11:04:56.307Z,93885.00
2023-04-12T11:05:56.100Z,93881.00
2023-04-12T11:06:58.538Z,93879.00
2023-04-12T11:07:56.156Z,93873.00
2023-04-12T11:08:56.591Z,93871.00
2023-04-12T11:09:56.244Z,93867.00
2023-04-12T11:10:56.162Z,93857.00
2023-04-12T11:11:56.125Z,93855.00
2023-04-12T11:12:56.109Z,93849.00
2023-04-12T11:13:56.145Z,93847.00
2023-04-12T11:14:56.156Z,93847.00
2023-04-12T11:15:56.027Z,93847.00
2023-04-12T11:16:56.108Z,93849.00
2023-04-12T11:17:56.250Z,93849.00
2023-04-12T11:18:56.286Z,93845.00
2023-04-12T11:19:56.117Z,93847.00
2023-04-12T11:20:56.018Z,93838.00
2023-04-12T11:21:56.054Z,93834.00
2023-04-12T11:22:56.070Z,93836.00
2023-04-12T11:23:55.999Z,93830.00
2023-04-12T11:24:56.074Z,93830.00
2023-04-12T11:25:56.340Z,93822.00
2023-04-12T11:26:56.037Z,93822.00
2023-04-12T11:27:56.006Z,93822.00
2023-04-12T11:28:56.232Z,93816.00
2023-04-12T11:29:55.944Z,93814.00
2023-04-12T11:30:56.015Z,93812.00
2023-04-12T11:31:56.069Z,93810.00
2023-04-12T11:32:55.996Z,93806.00
2023-04-12T11:33:55.960Z,93802.00
2023-04-12T11:34:55.945Z,93798.00
2023-04-12T11:35:55.955Z,93800.00
2023-04-12T11:36:55.953Z,93796.00
2023-04-12T11:37:55.966Z,93790.00
2023-04-12T11:38:56.264Z,93787.00
2023-04-12T11:39:55.894Z,93785.00
2023-04-12T11:40:55.928Z,93785.00
2023-04-12T11:41:55.907Z,93779.00
2023-04-12T11:42:55.902Z,93775.00
2023-04-12T11:43:55.954Z,93773.00
2023-04-12T11:44:59.782Z,93773.00